sensor_id;sensor_type;location;lat;lon;timestamp;P1;durP1;ratioP1;P2;durP2;ratioP2
61640;SDS011;62201;49.966;8.342;2023-06-10T00:01:52;11.10;;;5.32;;
61640;SDS011;62201;49.966;8.342;2023-06-10T00:04:18;8.85;;;5.32;;
61640;SDS011;62201;49.966;8.342;2023-06-10T00:06:44;8.60;;;5.40;;
61640;SDS011;62201;49.966;8.342;2023-06-10T00:09:10;9.25;;;5.00;;
61640;SDS011;62201;49.966;8.342;2023-06-10T00:11:35;13.43;;;4.70;;
61640;SDS011;62201;49.966;8.342;2023-06-10T00:14:02;7.75;;;5.45;;
61640;SDS011;62201;49.966;8.342;2023-06-10T00:16:27;10.60;;;5.20;;
61640;SDS011;62201;49.966;8.342;2023-06-10T00:18:53;13.55;;;5.57;;
61640;SDS011;62201;49.966;8.342;2023-06-10T00:21:25;9.10;;;4.80;;
61640;SDS011;62201;49.966;8.342;2023-06-10T00:23:54;10.05;;;5.43;;
61640;SDS011;62201;49.966;8.342;2023-06-10T00:26:21;8.63;;;5.18;;
61640;SDS011;62201;49.966;8.342;2023-06-10T00:28:47;7.72;;;4.93;;
61640;SDS011;62201;49.966;8.342;2023-06-10T00:31:12;10.52;;;5.50;;
61640;SDS011;62201;49.966;8.342;2023-06-10T00:33:38;7.70;;;4.95;;
61640;SDS011;62201;49.966;8.342;2023-06-10T00:36:03;10.90;;;5.47;;
61640;SDS011;62201;49.966;8.342;2023-06-10T00:38:29;10.18;;;5.20;;
61640;SDS011;62201;49.966;8.342;2023-06-10T00:40:54;10.57;;;5.25;;
61640;SDS011;62201;49.966;8.342;2023-06-10T00:43:19;10.45;;;5.95;;
61640;SDS011;62201;49.966;8.342;2023-06-10T00:45:45;9.82;;;5.50;;
61640;SDS011;62201;49.966;8.342;2023-06-10T00:48:10;7.82;;;5.50;;
61640;SDS011;62201;49.966;8.342;2023-06-10T00:50:36;9.40;;;5.30;;
61640;SDS011;62201;49.966;8.342;2023-06-10T00:53:04;6.82;;;5.15;;
61640;SDS011;62201;49.966;8.342;2023-06-10T00:55:31;11.52;;;5.55;;
61640;SDS011;62201;49.966;8.342;2023-06-10T00:57:57;9.73;;;5.28;;
61640;SDS011;62201;49.966;8.342;2023-06-10T01:00:24;6.88;;;5.03;;
61640;SDS011;62201;49.966;8.342;2023-06-10T01:02:50;7.38;;;5.28;;
61640;SDS011;62201;49.966;8.342;2023-06-10T01:05:17;7.70;;;4.72;;
61640;SDS011;62201;49.966;8.342;2023-06-10T01:07:56;10.57;;;5.30;;
61640;SDS011;62201;49.966;8.342;2023-06-10T01:10:51;8.20;;;5.53;;
61640;SDS011;62201;49.966;8.342;2023-06-10T01:13:20;8.90;;;4.88;;
61640;SDS011;62201;49.966;8.342;2023-06-10T01:15:48;7.88;;;5.25;;
61640;SDS011;62201;49.966;8.342;2023-06-10T01:18:15;7.88;;;5.50;;
61640;SDS011;62201;49.966;8.342;2023-06-10T01:20:42;8.32;;;5.30;;
61640;SDS011;62201;49.966;8.342;2023-06-10T01:23:08;12.90;;;5.25;;
61640;SDS011;62201;49.966;8.342;2023-06-10T01:25:37;7.70;;;5.30;;
61640;SDS011;62201;49.966;8.342;2023-06-10T01:28:08;8.90;;;5.47;;
61640;SDS011;62201;49.966;8.342;2023-06-10T01:30:50;7.72;;;5.30;;
61640;SDS011;62201;49.966;8.342;2023-06-10T01:33:19;7.05;;;5.28;;
61640;SDS011;62201;49.966;8.342;2023-06-10T01:35:51;8.95;;;6.00;;
61640;SDS011;62201;49.966;8.342;2023-06-10T01:38:18;12.63;;;6.07;;
61640;SDS011;62201;49.966;8.342;2023-06-10T01:40:44;15.73;;;6.15;;
61640;SDS011;62201;49.966;8.342;2023-06-10T01:43:11;12.25;;;6.07;;
61640;SDS011;62201;49.966;8.342;2023-06-10T01:45:37;15.88;;;5.75;;
61640;SDS011;62201;49.966;8.342;2023-06-10T01:48:02;20.75;;;6.40;;
61640;SDS011;62201;49.966;8.342;2023-06-10T01:50:28;15.73;;;6.20;;
61640;SDS011;62201;49.966;8.342;2023-06-10T01:52:53;16.80;;;5.82;;
61640;SDS011;62201;49.966;8.342;2023-06-10T01:55:18;17.83;;;5.75;;
61640;SDS011;62201;49.966;8.342;2023-06-10T01:57:44;15.45;;;6.07;;
61640;SDS011;62201;49.966;8.342;2023-06-10T02:00:10;17.85;;;6.00;;
61640;SDS011;62201;49.966;8.342;2023-06-10T02:02:36;11.65;;;6.60;;
61640;SDS011;62201;49.966;8.342;2023-06-10T02:05:01;16.25;;;6.75;;
61640;SDS011;62201;49.966;8.342;2023-06-10T02:07:27;10.98;;;6.60;;
61640;SDS011;62201;49.966;8.342;2023-06-10T02:09:53;14.65;;;5.82;;
61640;SDS011;62201;49.966;8.342;2023-06-10T02:12:18;9.68;;;5.88;;
61640;SDS011;62201;49.966;8.342;2023-06-10T02:14:44;8.85;;;6.18;;
61640;SDS011;62201;49.966;8.342;2023-06-10T02:17:09;10.18;;;6.10;;
61640;SDS011;62201;49.966;8.342;2023-06-10T02:19:37;11.10;;;6.13;;
61640;SDS011;62201;49.966;8.342;2023-06-10T02:22:07;13.68;;;6.22;;
61640;SDS011;62201;49.966;8.342;2023-06-10T02:24:32;12.00;;;5.88;;
61640;SDS011;62201;49.966;8.342;2023-06-10T02:26:57;9.75;;;5.85;;
61640;SDS011;62201;49.966;8.342;2023-06-10T02:29:25;7.82;;;5.93;;
61640;SDS011;62201;49.966;8.342;2023-06-10T02:31:50;12.35;;;6.00;;
61640;SDS011;62201;49.966;8.342;2023-06-10T02:34:17;12.43;;;6.00;;
61640;SDS011;62201;49.966;8.342;2023-06-10T02:36:43;14.32;;;5.88;;
61640;SDS011;62201;49.966;8.342;2023-06-10T02:39:09;10.82;;;5.85;;
61640;SDS011;62201;49.966;8.342;2023-06-10T02:41:34;8.20;;;6.60;;
61640;SDS011;62201;49.966;8.342;2023-06-10T02:44:00;15.32;;;6.03;;
61640;SDS011;62201;49.966;8.342;2023-06-10T02:46:25;6.63;;;5.97;;
61640;SDS011;62201;49.966;8.342;2023-06-10T02:48:53;8.95;;;5.53;;
61640;SDS011;62201;49.966;8.342;2023-06-10T02:51:19;8.88;;;5.80;;
61640;SDS011;62201;49.966;8.342;2023-06-10T02:53:45;10.52;;;6.75;;
61640;SDS011;62201;49.966;8.342;2023-06-10T02:56:11;9.48;;;5.63;;
61640;SDS011;62201;49.966;8.342;2023-06-10T02:58:37;11.48;;;6.40;;
61640;SDS011;62201;49.966;8.342;2023-06-10T03:01:03;8.35;;;5.20;;
61640;SDS011;62201;49.966;8.342;2023-06-10T03:03:28;13.40;;;5.63;;
61640;SDS011;62201;49.966;8.342;2023-06-10T03:05:55;10.40;;;6.28;;
61640;SDS011;62201;49.966;8.342;2023-06-10T03:08:21;9.73;;;5.80;;
61640;SDS011;62201;49.966;8.342;2023-06-10T03:10:47;13.30;;;5.82;;
61640;SDS011;62201;49.966;8.342;2023-06-10T03:13:12;11.32;;;5.50;;
61640;SDS011;62201;49.966;8.342;2023-06-10T03:15:39;8.48;;;5.22;;
61640;SDS011;62201;49.966;8.342;2023-06-10T03:18:05;7.60;;;5.93;;
61640;SDS011;62201;49.966;8.342;2023-06-10T03:20:31;10.20;;;5.13;;
61640;SDS011;62201;49.966;8.342;2023-06-10T03:23:01;9.82;;;5.35;;
61640;SDS011;62201;49.966;8.342;2023-06-10T03:25:27;8.40;;;5.30;;
61640;SDS011;62201;49.966;8.342;2023-06-10T03:27:53;9.43;;;5.18;;
61640;SDS011;62201;49.966;8.342;2023-06-10T03:30:19;11.00;;;5.65;;
61640;SDS011;62201;49.966;8.342;2023-06-10T03:32:44;6.45;;;5.78;;
61640;SDS011;62201;49.966;8.342;2023-06-10T03:35:09;10.35;;;6.00;;
61640;SDS011;62201;49.966;8.342;2023-06-10T03:37:35;13.38;;;5.90;;
61640;SDS011;62201;49.966;8.342;2023-06-10T03:40:01;11.90;;;6.20;;
61640;SDS011;62201;49.966;8.342;2023-06-10T03:42:26;9.95;;;5.97;;
61640;SDS011;62201;49.966;8.342;2023-06-10T03:44:51;8.90;;;5.65;;
61640;SDS011;62201;49.966;8.342;2023-06-10T03:47:17;14.70;;;5.82;;
61640;SDS011;62201;49.966;8.342;2023-06-10T03:49:43;8.80;;;6.00;;
61640;SDS011;62201;49.966;8.342;2023-06-10T03:52:08;8.10;;;5.53;;
61640;SDS011;62201;49.966;8.342;2023-06-10T03:54:34;6.75;;;5.45;;
61640;SDS011;62201;49.966;8.342;2023-06-10T03:57:00;9.40;;;5.72;;
61640;SDS011;62201;49.966;8.342;2023-06-10T03:59:25;10.25;;;5.53;;
61640;SDS011;62201;49.966;8.342;2023-06-10T04:01:51;11.93;;;5.30;;
61640;SDS011;62201;49.966;8.342;2023-06-10T04:04:16;7.15;;;4.90;;
61640;SDS011;62201;49.966;8.342;2023-06-10T04:06:42;8.20;;;4.72;;
61640;SDS011;62201;49.966;8.342;2023-06-10T04:09:08;7.15;;;4.32;;
61640;SDS011;62201;49.966;8.342;2023-06-10T04:11:34;7.63;;;4.95;;
61640;SDS011;62201;49.966;8.342;2023-06-10T04:14:00;7.53;;;4.70;;
61640;SDS011;62201;49.966;8.342;2023-06-10T04:16:26;11.10;;;5.45;;
61640;SDS011;62201;49.966;8.342;2023-06-10T04:18:52;8.73;;;4.82;;
61640;SDS011;62201;49.966;8.342;2023-06-10T04:21:17;7.30;;;4.72;;
61640;SDS011;62201;49.966;8.342;2023-06-10T04:23:43;9.13;;;4.95;;
61640;SDS011;62201;49.966;8.342;2023-06-10T04:26:08;9.18;;;4.45;;
61640;SDS011;62201;49.966;8.342;2023-06-10T04:28:33;5.60;;;4.70;;
61640;SDS011;62201;49.966;8.342;2023-06-10T04:30:59;8.05;;;4.15;;
61640;SDS011;62201;49.966;8.342;2023-06-10T04:33:24;8.45;;;4.53;;
61640;SDS011;62201;49.966;8.342;2023-06-10T04:35:50;6.50;;;4.38;;
61640;SDS011;62201;49.966;8.342;2023-06-10T04:38:15;7.18;;;4.68;;
61640;SDS011;62201;49.966;8.342;2023-06-10T04:40:41;8.75;;;4.40;;
61640;SDS011;62201;49.966;8.342;2023-06-10T04:43:06;7.85;;;4.75;;
61640;SDS011;62201;49.966;8.342;2023-06-10T04:45:31;12.52;;;5.07;;
61640;SDS011;62201;49.966;8.342;2023-06-10T04:47:57;6.78;;;4.28;;
61640;SDS011;62201;49.966;8.342;2023-06-10T04:50:23;7.32;;;4.50;;
61640;SDS011;62201;49.966;8.342;2023-06-10T04:52:48;9.10;;;5.38;;
61640;SDS011;62201;49.966;8.342;2023-06-10T04:55:13;9.65;;;4.60;;
61640;SDS011;62201;49.966;8.342;2023-06-10T04:57:39;8.27;;;4.35;;
61640;SDS011;62201;49.966;8.342;2023-06-10T05:00:04;9.02;;;4.80;;
61640;SDS011;62201;49.966;8.342;2023-06-10T05:02:31;6.82;;;4.55;;
61640;SDS011;62201;49.966;8.342;2023-06-10T05:04:56;6.47;;;4.95;;
61640;SDS011;62201;49.966;8.342;2023-06-10T05:07:22;8.05;;;4.82;;
61640;SDS011;62201;49.966;8.342;2023-06-10T05:09:48;9.48;;;4.57;;
61640;SDS011;62201;49.966;8.342;2023-06-10T05:12:13;14.43;;;5.28;;
61640;SDS011;62201;49.966;8.342;2023-06-10T05:14:39;5.68;;;4.40;;
61640;SDS011;62201;49.966;8.342;2023-06-10T05:17:04;9.40;;;4.47;;
61640;SDS011;62201;49.966;8.342;2023-06-10T05:19:31;7.25;;;4.55;;
61640;SDS011;62201;49.966;8.342;2023-06-10T05:21:57;7.97;;;4.32;;
61640;SDS011;62201;49.966;8.342;2023-06-10T05:24:22;6.35;;;4.22;;
61640;SDS011;62201;49.966;8.342;2023-06-10T05:26:48;8.15;;;4.35;;
61640;SDS011;62201;49.966;8.342;2023-06-10T05:29:13;5.97;;;4.28;;
61640;SDS011;62201;49.966;8.342;2023-06-10T05:31:40;8.35;;;4.10;;
61640;SDS011;62201;49.966;8.342;2023-06-10T05:34:06;9.52;;;3.85;;
61640;SDS011;62201;49.966;8.342;2023-06-10T05:36:31;7.40;;;4.15;;
61640;SDS011;62201;49.966;8.342;2023-06-10T05:38:57;9.30;;;3.85;;
61640;SDS011;62201;49.966;8.342;2023-06-10T05:41:22;8.23;;;3.78;;
61640;SDS011;62201;49.966;8.342;2023-06-10T05:43:48;6.10;;;4.35;;
61640;SDS011;62201;49.966;8.342;2023-06-10T05:46:13;9.80;;;4.30;;
61640;SDS011;62201;49.966;8.342;2023-06-10T05:48:39;6.97;;;3.72;;
61640;SDS011;62201;49.966;8.342;2023-06-10T05:51:04;9.05;;;4.32;;
61640;SDS011;62201;49.966;8.342;2023-06-10T05:53:29;5.47;;;4.40;;
61640;SDS011;62201;49.966;8.342;2023-06-10T05:55:55;9.63;;;4.30;;
61640;SDS011;62201;49.966;8.342;2023-06-10T05:58:22;6.95;;;4.10;;
61640;SDS011;62201;49.966;8.342;2023-06-10T06:00:48;7.72;;;4.13;;
61640;SDS011;62201;49.966;8.342;2023-06-10T06:03:13;9.07;;;4.10;;
61640;SDS011;62201;49.966;8.342;2023-06-10T06:05:38;6.32;;;4.30;;
61640;SDS011;62201;49.966;8.342;2023-06-10T06:08:04;14.18;;;4.40;;
61640;SDS011;62201;49.966;8.342;2023-06-10T06:10:30;8.45;;;4.25;;
61640;SDS011;62201;49.966;8.342;2023-06-10T06:12:55;9.35;;;4.25;;
61640;SDS011;62201;49.966;8.342;2023-06-10T06:15:21;15.30;;;4.63;;
61640;SDS011;62201;49.966;8.342;2023-06-10T06:17:46;8.15;;;4.18;;
61640;SDS011;62201;49.966;8.342;2023-06-10T06:20:12;11.75;;;4.43;;
61640;SDS011;62201;49.966;8.342;2023-06-10T06:22:37;8.88;;;4.13;;
61640;SDS011;62201;49.966;8.342;2023-06-10T06:25:03;6.07;;;3.88;;
61640;SDS011;62201;49.966;8.342;2023-06-10T06:27:29;10.55;;;4.30;;
61640;SDS011;62201;49.966;8.342;2023-06-10T06:29:54;6.07;;;4.30;;
61640;SDS011;62201;49.966;8.342;2023-06-10T06:32:19;7.35;;;4.07;;
61640;SDS011;62201;49.966;8.342;2023-06-10T06:34:47;8.35;;;4.03;;
61640;SDS011;62201;49.966;8.342;2023-06-10T06:37:14;7.90;;;4.25;;
61640;SDS011;62201;49.966;8.342;2023-06-10T06:39:39;9.77;;;4.55;;
61640;SDS011;62201;49.966;8.342;2023-06-10T06:42:05;7.38;;;3.83;;
61640;SDS011;62201;49.966;8.342;2023-06-10T06:44:30;10.00;;;4.35;;
61640;SDS011;62201;49.966;8.342;2023-06-10T06:46:56;7.40;;;3.90;;
61640;SDS011;62201;49.966;8.342;2023-06-10T06:49:21;6.50;;;3.90;;
61640;SDS011;62201;49.966;8.342;2023-06-10T06:51:47;7.68;;;4.15;;
61640;SDS011;62201;49.966;8.342;2023-06-10T06:54:12;7.22;;;4.20;;
61640;SDS011;62201;49.966;8.342;2023-06-10T06:56:37;7.30;;;4.43;;
61640;SDS011;62201;49.966;8.342;2023-06-10T06:59:03;6.70;;;4.05;;
61640;SDS011;62201;49.966;8.342;2023-06-10T07:01:29;6.85;;;4.32;;
61640;SDS011;62201;49.966;8.342;2023-06-10T07:03:55;6.30;;;4.07;;
61640;SDS011;62201;49.966;8.342;2023-06-10T07:06:20;6.88;;;4.30;;
61640;SDS011;62201;49.966;8.342;2023-06-10T07:08:45;7.15;;;4.20;;
61640;SDS011;62201;49.966;8.342;2023-06-10T07:11:11;4.97;;;4.00;;
61640;SDS011;62201;49.966;8.342;2023-06-10T07:13:36;5.50;;;4.22;;
61640;SDS011;62201;49.966;8.342;2023-06-10T07:16:01;5.35;;;3.97;;
61640;SDS011;62201;49.966;8.342;2023-06-10T07:18:27;5.55;;;4.22;;
61640;SDS011;62201;49.966;8.342;2023-06-10T07:20:52;6.07;;;4.00;;
61640;SDS011;62201;49.966;8.342;2023-06-10T07:23:18;8.55;;;4.18;;
61640;SDS011;62201;49.966;8.342;2023-06-10T07:25:43;7.28;;;4.38;;
61640;SDS011;62201;49.966;8.342;2023-06-10T07:28:09;10.32;;;4.60;;
61640;SDS011;62201;49.966;8.342;2023-06-10T07:30:34;7.55;;;4.18;;
61640;SDS011;62201;49.966;8.342;2023-06-10T07:33:00;6.32;;;4.15;;
61640;SDS011;62201;49.966;8.342;2023-06-10T07:35:26;6.95;;;4.65;;
61640;SDS011;62201;49.966;8.342;2023-06-10T07:37:52;4.43;;;4.00;;
61640;SDS011;62201;49.966;8.342;2023-06-10T07:40:17;7.57;;;4.40;;
61640;SDS011;62201;49.966;8.342;2023-06-10T07:42:43;5.60;;;4.20;;
61640;SDS011;62201;49.966;8.342;2023-06-10T07:45:08;6.93;;;4.00;;
61640;SDS011;62201;49.966;8.342;2023-06-10T07:47:34;8.02;;;4.50;;
61640;SDS011;62201;49.966;8.342;2023-06-10T07:49:59;6.05;;;4.00;;
61640;SDS011;62201;49.966;8.342;2023-06-10T07:52:25;11.60;;;4.30;;
61640;SDS011;62201;49.966;8.342;2023-06-10T07:54:51;6.40;;;4.30;;
61640;SDS011;62201;49.966;8.342;2023-06-10T07:57:16;8.20;;;4.30;;
61640;SDS011;62201;49.966;8.342;2023-06-10T07:59:42;11.68;;;4.20;;
61640;SDS011;62201;49.966;8.342;2023-06-10T08:02:09;7.13;;;4.10;;
61640;SDS011;62201;49.966;8.342;2023-06-10T08:04:34;9.80;;;4.40;;
61640;SDS011;62201;49.966;8.342;2023-06-10T08:07:00;8.93;;;4.30;;
61640;SDS011;62201;49.966;8.342;2023-06-10T08:09:25;9.30;;;4.35;;
61640;SDS011;62201;49.966;8.342;2023-06-10T08:11:51;6.85;;;4.20;;
61640;SDS011;62201;49.966;8.342;2023-06-10T08:14:16;9.70;;;4.03;;
61640;SDS011;62201;49.966;8.342;2023-06-10T08:16:43;9.35;;;4.22;;
61640;SDS011;62201;49.966;8.342;2023-06-10T08:19:08;8.65;;;4.50;;
61640;SDS011;62201;49.966;8.342;2023-06-10T08:21:34;7.32;;;4.40;;
61640;SDS011;62201;49.966;8.342;2023-06-10T08:24:01;6.00;;;3.95;;
61640;SDS011;62201;49.966;8.342;2023-06-10T08:26:27;7.90;;;4.53;;
61640;SDS011;62201;49.966;8.342;2023-06-10T08:28:52;8.23;;;4.72;;
61640;SDS011;62201;49.966;8.342;2023-06-10T08:31:19;8.48;;;4.35;;
61640;SDS011;62201;49.966;8.342;2023-06-10T08:33:44;9.60;;;4.63;;
61640;SDS011;62201;49.966;8.342;2023-06-10T08:36:09;6.70;;;4.70;;
61640;SDS011;62201;49.966;8.342;2023-06-10T08:38:35;8.63;;;4.50;;
61640;SDS011;62201;49.966;8.342;2023-06-10T08:41:00;11.60;;;4.82;;
61640;SDS011;62201;49.966;8.342;2023-06-10T08:43:40;8.00;;;4.20;;
61640;SDS011;62201;49.966;8.342;2023-06-10T08:46:09;8.43;;;4.50;;
61640;SDS011;62201;49.966;8.342;2023-06-10T08:48:36;8.40;;;4.45;;
61640;SDS011;62201;49.966;8.342;2023-06-10T08:51:07;9.50;;;4.45;;
61640;SDS011;62201;49.966;8.342;2023-06-10T08:53:36;7.68;;;4.15;;
61640;SDS011;62201;49.966;8.342;2023-06-10T08:56:03;8.95;;;3.85;;
61640;SDS011;62201;49.966;8.342;2023-06-10T08:58:31;6.85;;;4.82;;
61640;SDS011;62201;49.966;8.342;2023-06-10T09:00:58;6.60;;;4.03;;
61640;SDS011;62201;49.966;8.342;2023-06-10T09:03:24;9.82;;;4.63;;
61640;SDS011;62201;49.966;8.342;2023-06-10T09:05:50;5.72;;;4.20;;
61640;SDS011;62201;49.966;8.342;2023-06-10T09:08:16;7.38;;;4.28;;
61640;SDS011;62201;49.966;8.342;2023-06-10T09:10:41;9.18;;;4.53;;
61640;SDS011;62201;49.966;8.342;2023-06-10T09:13:07;6.97;;;4.00;;
61640;SDS011;62201;49.966;8.342;2023-06-10T09:15:32;7.00;;;4.07;;
61640;SDS011;62201;49.966;8.342;2023-06-10T09:17:58;5.75;;;4.45;;
61640;SDS011;62201;49.966;8.342;2023-06-10T09:20:25;6.63;;;4.38;;
61640;SDS011;62201;49.966;8.342;2023-06-10T09:22:50;9.40;;;4.30;;
61640;SDS011;62201;49.966;8.342;2023-06-10T09:25:16;5.95;;;4.25;;
61640;SDS011;62201;49.966;8.342;2023-06-10T09:27:52;7.32;;;4.32;;
61640;SDS011;62201;49.966;8.342;2023-06-10T09:30:27;9.13;;;4.47;;
61640;SDS011;62201;49.966;8.342;2023-06-10T09:32:55;8.93;;;3.95;;
61640;SDS011;62201;49.966;8.342;2023-06-10T09:35:22;8.35;;;3.95;;
61640;SDS011;62201;49.966;8.342;2023-06-10T09:37:55;8.43;;;4.05;;
61640;SDS011;62201;49.966;8.342;2023-06-10T09:40:22;7.50;;;3.85;;
61640;SDS011;62201;49.966;8.342;2023-06-10T09:42:55;6.68;;;3.90;;
61640;SDS011;62201;49.966;8.342;2023-06-10T09:45:22;7.00;;;3.97;;
61640;SDS011;62201;49.966;8.342;2023-06-10T09:47:52;6.38;;;3.70;;
61640;SDS011;62201;49.966;8.342;2023-06-10T09:50:18;9.35;;;4.00;;
61640;SDS011;62201;49.966;8.342;2023-06-10T09:52:44;8.43;;;4.00;;
61640;SDS011;62201;49.966;8.342;2023-06-10T09:55:11;4.40;;;3.90;;
61640;SDS011;62201;49.966;8.342;2023-06-10T09:57:37;5.15;;;3.63;;
61640;SDS011;62201;49.966;8.342;2023-06-10T10:00:08;5.60;;;3.40;;
61640;SDS011;62201;49.966;8.342;2023-06-10T10:02:50;6.97;;;3.60;;
61640;SDS011;62201;49.966;8.342;2023-06-10T10:05:18;5.18;;;3.70;;
61640;SDS011;62201;49.966;8.342;2023-06-10T10:07:44;7.20;;;3.58;;
61640;SDS011;62201;49.966;8.342;2023-06-10T10:10:11;10.80;;;3.78;;
61640;SDS011;62201;49.966;8.342;2023-06-10T10:12:38;6.88;;;3.70;;
61640;SDS011;62201;49.966;8.342;2023-06-10T10:15:08;7.57;;;3.55;;
61640;SDS011;62201;49.966;8.342;2023-06-10T10:17:40;9.43;;;4.22;;
61640;SDS011;62201;49.966;8.342;2023-06-10T10:20:24;5.00;;;3.78;;
61640;SDS011;62201;49.966;8.342;2023-06-10T10:22:55;6.20;;;3.45;;
61640;SDS011;62201;49.966;8.342;2023-06-10T10:25:43;5.93;;;3.35;;
61640;SDS011;62201;49.966;8.342;2023-06-10T10:28:09;6.40;;;3.60;;
61640;SDS011;62201;49.966;8.342;2023-06-10T10:30:39;9.88;;;3.42;;
61640;SDS011;62201;49.966;8.342;2023-06-10T10:33:12;8.90;;;3.80;;
61640;SDS011;62201;49.966;8.342;2023-06-10T10:35:41;9.48;;;3.42;;
61640;SDS011;62201;49.966;8.342;2023-06-10T10:38:08;4.70;;;3.45;;
61640;SDS011;62201;49.966;8.342;2023-06-10T10:40:34;3.92;;;3.22;;
61640;SDS011;62201;49.966;8.342;2023-06-10T10:43:00;4.13;;;3.50;;
61640;SDS011;62201;49.966;8.342;2023-06-10T10:52:14;6.90;;;3.95;;
61640;SDS011;62201;49.966;8.342;2023-06-10T10:54:43;4.82;;;3.70;;
61640;SDS011;62201;49.966;8.342;2023-06-10T10:57:20;9.90;;;3.92;;
61640;SDS011;62201;49.966;8.342;2023-06-10T10:59:55;4.80;;;3.67;;
61640;SDS011;62201;49.966;8.342;2023-06-10T11:02:35;5.53;;;3.53;;
61640;SDS011;62201;49.966;8.342;2023-06-10T11:05:03;6.57;;;3.88;;
61640;SDS011;62201;49.966;8.342;2023-06-10T11:07:30;7.03;;;3.67;;
61640;SDS011;62201;49.966;8.342;2023-06-10T11:10:13;9.50;;;3.67;;
61640;SDS011;62201;49.966;8.342;2023-06-10T11:15:10;7.63;;;3.50;;
61640;SDS011;62201;49.966;8.342;2023-06-10T22:09:15;6.65;;;4.55;;
61640;SDS011;62201;49.966;8.342;2023-06-10T22:11:40;6.53;;;4.30;;
61640;SDS011;62201;49.966;8.342;2023-06-10T22:14:07;7.35;;;4.30;;
61640;SDS011;62201;49.966;8.342;2023-06-10T22:16:32;5.53;;;4.28;;
61640;SDS011;62201;49.966;8.342;2023-06-10T22:18:58;5.43;;;4.35;;
61640;SDS011;62201;49.966;8.342;2023-06-10T22:21:23;6.55;;;4.70;;
61640;SDS011;62201;49.966;8.342;2023-06-10T22:23:49;10.35;;;4.20;;
61640;SDS011;62201;49.966;8.342;2023-06-10T22:26:15;6.15;;;4.50;;
61640;SDS011;62201;49.966;8.342;2023-06-10T22:28:40;4.95;;;4.43;;
61640;SDS011;62201;49.966;8.342;2023-06-10T22:31:05;4.93;;;3.90;;
61640;SDS011;62201;49.966;8.342;2023-06-10T22:33:31;5.45;;;4.13;;
61640;SDS011;62201;49.966;8.342;2023-06-10T22:35:56;5.05;;;4.00;;
61640;SDS011;62201;49.966;8.342;2023-06-10T22:38:21;5.50;;;4.15;;
61640;SDS011;62201;49.966;8.342;2023-06-10T22:40:47;7.32;;;4.00;;
61640;SDS011;62201;49.966;8.342;2023-06-10T22:43:12;5.78;;;3.90;;
61640;SDS011;62201;49.966;8.342;2023-06-10T22:45:37;7.70;;;4.05;;
61640;SDS011;62201;49.966;8.342;2023-06-10T22:48:03;6.25;;;4.22;;
61640;SDS011;62201;49.966;8.342;2023-06-10T22:50:28;6.28;;;4.00;;
61640;SDS011;62201;49.966;8.342;2023-06-10T22:52:54;13.98;;;4.90;;
61640;SDS011;62201;49.966;8.342;2023-06-10T22:55:19;6.90;;;4.35;;
61640;SDS011;62201;49.966;8.342;2023-06-10T22:57:45;4.13;;;3.65;;
61640;SDS011;62201;49.966;8.342;2023-06-10T23:00:11;6.18;;;4.20;;
61640;SDS011;62201;49.966;8.342;2023-06-10T23:02:39;6.15;;;4.22;;
61640;SDS011;62201;49.966;8.342;2023-06-10T23:05:05;6.72;;;3.92;;
61640;SDS011;62201;49.966;8.342;2023-06-10T23:07:32;8.02;;;4.10;;
61640;SDS011;62201;49.966;8.342;2023-06-10T23:09:57;5.88;;;4.28;;
61640;SDS011;62201;49.966;8.342;2023-06-10T23:12:23;6.00;;;4.40;;
61640;SDS011;62201;49.966;8.342;2023-06-10T23:14:48;7.78;;;4.05;;
61640;SDS011;62201;49.966;8.342;2023-06-10T23:17:14;6.53;;;4.13;;
61640;SDS011;62201;49.966;8.342;2023-06-10T23:19:39;5.43;;;4.13;;
61640;SDS011;62201;49.966;8.342;2023-06-10T23:22:07;4.78;;;3.90;;
61640;SDS011;62201;49.966;8.342;2023-06-10T23:24:34;5.70;;;3.75;;
61640;SDS011;62201;49.966;8.342;2023-06-10T23:27:01;5.25;;;4.03;;
61640;SDS011;62201;49.966;8.342;2023-06-10T23:29:27;5.07;;;4.47;;
61640;SDS011;62201;49.966;8.342;2023-06-10T23:31:52;6.20;;;4.15;;
61640;SDS011;62201;49.966;8.342;2023-06-10T23:34:19;6.00;;;4.35;;
61640;SDS011;62201;49.966;8.342;2023-06-10T23:36:45;6.28;;;4.45;;
61640;SDS011;62201;49.966;8.342;2023-06-10T23:39:12;5.70;;;3.95;;
61640;SDS011;62201;49.966;8.342;2023-06-10T23:41:39;5.68;;;4.40;;
61640;SDS011;62201;49.966;8.342;2023-06-10T23:44:05;8.05;;;4.20;;
61640;SDS011;62201;49.966;8.342;2023-06-10T23:46:33;8.07;;;4.03;;
61640;SDS011;62201;49.966;8.342;2023-06-10T23:48:59;5.70;;;4.32;;
61640;SDS011;62201;49.966;8.342;2023-06-10T23:51:24;8.70;;;4.25;;
61640;SDS011;62201;49.966;8.342;2023-06-10T23:53:50;5.28;;;4.25;;
61640;SDS011;62201;49.966;8.342;2023-06-10T23:56:17;6.75;;;4.07;;
61640;SDS011;62201;49.966;8.342;2023-06-10T23:58:46;6.50;;;4.32;;
